createdAt,value
2018-10-12T00:00:17.135Z,16.1
2018-10-12T00:05:15.666Z,16.6
2018-10-12T00:10:13.995Z,16.1
2018-10-12T00:15:12.193Z,16.6
2018-10-12T00:20:10.548Z,16.5
2018-10-12T00:25:08.080Z,16.5
2018-10-12T00:30:06.217Z,15.9
2018-10-12T00:35:04.435Z,16.5
2018-10-12T00:40:02.801Z,15.8
2018-10-12T00:45:01.207Z,16.4
2018-10-12T00:49:59.522Z,16.1
2018-10-12T00:54:57.691Z,16.4
2018-10-12T00:59:55.880Z,16.3
2018-10-12T01:04:54.240Z,15.8
2018-10-12T01:09:52.506Z,16.3
2018-10-12T01:14:50.760Z,16.3
2018-10-12T01:19:49.000Z,16.2
2018-10-12T01:24:47.484Z,16.2
2018-10-12T01:29:45.640Z,16.2
2018-10-12T01:34:43.905Z,16.2
2018-10-12T01:39:42.107Z,16.1
2018-10-12T01:44:40.324Z,16.1
2018-10-12T01:49:38.742Z,16.1
2018-10-12T01:54:37.044Z,16.1
2018-10-12T01:59:35.359Z,16
2018-10-12T02:04:33.532Z,16
2018-10-12T02:09:31.779Z,16
2018-10-12T02:14:30.020Z,16
2018-10-12T02:19:28.312Z,15.9
2018-10-12T02:24:26.535Z,15.9
2018-10-12T02:29:24.970Z,15.6
2018-10-12T02:34:23.272Z,15.9
2018-10-12T02:39:21.597Z,15.4
2018-10-12T02:44:19.994Z,15.3
2018-10-12T02:49:18.421Z,15.3
2018-10-12T02:54:16.777Z,15.8
2018-10-12T02:59:15.113Z,15.2
2018-10-12T03:04:13.280Z,15.7
2018-10-12T03:09:11.637Z,15.7
2018-10-12T03:14:09.789Z,15.7
2018-10-12T03:19:08.214Z,15.7
2018-10-12T03:24:06.636Z,15.6
2018-10-12T03:29:04.888Z,15.6
2018-10-12T03:34:03.500Z,15.4
2018-10-12T03:39:01.603Z,15.6
2018-10-12T03:43:59.776Z,15.5
2018-10-12T03:48:58.304Z,15
2018-10-12T03:53:56.655Z,14.9
2018-10-12T03:58:55.121Z,14.9
2018-10-12T04:03:53.511Z,14.8
2018-10-12T04:08:51.942Z,14.8
2018-10-12T04:13:49.887Z,15.4
2018-10-12T04:18:48.221Z,14.4
2018-10-12T04:23:46.549Z,14.8
2018-10-12T04:28:44.787Z,14.8
2018-10-12T04:33:43.319Z,15.3
2018-10-12T04:38:41.543Z,14.7
2018-10-12T04:43:39.814Z,14.7
2018-10-12T04:48:38.225Z,14.7
2018-10-12T04:53:36.388Z,15.2
2018-10-12T04:58:34.770Z,15.2
2018-10-12T05:03:32.989Z,15.2
2018-10-12T05:08:31.347Z,14.6
2018-10-12T05:13:29.632Z,15.1
2018-10-12T05:18:28.116Z,15.1
2018-10-12T05:23:26.540Z,14.6
2018-10-12T05:28:24.959Z,15.1
2018-10-12T05:33:23.441Z,15
2018-10-12T05:38:21.974Z,14.2
2018-10-12T05:43:20.385Z,15
2018-10-12T05:48:18.771Z,14.4
2018-10-12T05:53:17.220Z,14.4
2018-10-12T05:58:15.378Z,14.9
2018-10-12T06:03:13.824Z,14.9
2018-10-12T06:08:12.756Z,14.2
2018-10-12T06:13:10.919Z,14.9
2018-10-12T06:18:09.116Z,14.9
2018-10-12T06:23:07.257Z,14.9
2018-10-12T06:28:05.568Z,14.9
2018-10-12T06:33:03.999Z,14.9
2018-10-12T06:38:02.668Z,14.3
2018-10-12T06:43:01.025Z,14.8
2018-10-12T06:47:59.098Z,14.8
2018-10-12T06:52:57.374Z,14.8
2018-10-12T06:57:55.816Z,14.8
2018-10-12T07:02:54.267Z,14.8
2018-10-12T07:07:52.610Z,14.8
2018-10-12T07:12:51.368Z,14.8
2018-10-12T07:17:49.178Z,14.3
2018-10-12T07:22:47.939Z,14.8
2018-10-12T07:27:46.043Z,14.8
2018-10-12T07:32:44.930Z,14.8
2018-10-12T07:37:43.420Z,14.8
2018-10-12T07:42:42.170Z,14.8
2018-10-12T07:47:40.061Z,14.8
2018-10-12T07:52:38.831Z,14.8
2018-10-12T07:57:37.260Z,14.8
2018-10-12T08:02:36.436Z,14.8
2018-10-12T08:07:34.516Z,14.8
2018-10-12T08:12:33.251Z,14.8
2018-10-12T08:17:31.548Z,14.9
2018-10-12T08:22:30.003Z,14.9
2018-10-12T08:27:28.362Z,14.9
2018-10-12T08:32:26.465Z,14.9
2018-10-12T08:37:24.843Z,14.9
2018-10-12T08:42:23.114Z,14.9
2018-10-12T08:47:21.358Z,14.9
2018-10-12T08:52:19.643Z,15
2018-10-12T08:57:17.994Z,15
2018-10-12T09:02:16.306Z,15
2018-10-12T09:07:14.808Z,15.1
2018-10-12T09:12:13.193Z,15.1
2018-10-12T09:17:11.419Z,15.1
2018-10-12T09:22:10.069Z,15.2
2018-10-12T09:27:08.678Z,15.2
2018-10-12T09:32:07.034Z,15.2
2018-10-12T09:37:05.197Z,15.3
2018-10-12T09:42:03.547Z,15.3
2018-10-12T09:47:01.856Z,15.3
2018-10-12T09:52:00.226Z,15.4
2018-10-12T09:56:58.549Z,15.4
2018-10-12T10:01:57.096Z,15.4
2018-10-12T10:06:55.565Z,14.9
2018-10-12T10:11:53.982Z,15.5
2018-10-12T10:16:52.462Z,15.6
2018-10-12T10:21:50.875Z,15.6
2018-10-12T10:26:49.329Z,15.6
2018-10-12T10:31:47.800Z,15.7
2018-10-12T10:36:46.011Z,15.7
2018-10-12T10:41:44.719Z,15.8
2018-10-12T10:46:42.964Z,15.8
2018-10-12T10:51:41.816Z,15.9
2018-10-12T10:56:40.171Z,15.9
2018-10-12T11:01:38.552Z,16
2018-10-12T11:06:37.018Z,16
2018-10-12T11:11:35.851Z,16.1
2018-10-12T11:16:34.020Z,16.1
2018-10-12T11:21:32.824Z,16.2
2018-10-12T11:26:31.390Z,16.2
2018-10-12T11:31:30.509Z,16.3
2018-10-12T11:36:28.456Z,16.3
2018-10-12T11:41:26.880Z,16.4
2018-10-12T11:46:25.310Z,16.4
2018-10-12T11:51:23.734Z,16.5
2018-10-12T11:56:22.120Z,16.5
2018-10-12T12:01:20.987Z,16.6
2018-10-12T12:06:19.292Z,16.7
2018-10-12T12:11:18.302Z,16.8
2018-10-12T12:16:16.724Z,16.8
2018-10-12T12:21:15.882Z,16.9
2018-10-12T12:26:14.040Z,16.9
2018-10-12T12:31:12.748Z,17
2018-10-12T12:36:10.562Z,17.1
2018-10-12T12:41:09.836Z,16.9
2018-10-12T12:46:08.311Z,17.2
2018-10-12T12:51:07.314Z,17.2
2018-10-12T12:56:05.602Z,17.3
2018-10-12T13:01:03.985Z,17.4
2018-10-12T13:06:02.463Z,17.4
2018-10-12T13:11:00.858Z,17.5
2018-10-12T13:15:59.414Z,17.5
2018-10-12T13:20:57.816Z,17.6
2018-10-12T13:25:56.717Z,17
2018-10-12T13:30:55.129Z,17.7
2018-10-12T13:35:53.536Z,17.8
2018-10-12T13:40:51.995Z,17.8
2018-10-12T13:45:50.426Z,17.9
2018-10-12T13:50:48.661Z,17.9
2018-10-12T13:55:47.155Z,18
2018-10-12T14:00:46.061Z,17.5
2018-10-12T14:05:44.189Z,18
2018-10-12T14:10:42.626Z,17.8
2018-10-12T14:15:40.973Z,18.1
2018-10-12T14:20:39.345Z,18.2
2018-10-12T14:25:37.819Z,17.7
2018-10-12T14:30:35.924Z,18.3
2018-10-12T14:35:34.276Z,18.3
2018-10-12T14:40:32.527Z,18.4
2018-10-12T14:45:30.836Z,17.9
2018-10-12T14:50:29.732Z,17.9
2018-10-12T14:55:28.163Z,18.5
2018-10-12T15:00:26.599Z,18.5
2018-10-12T15:05:25.043Z,18
2018-10-12T15:10:23.579Z,18.6
2018-10-12T15:15:22.105Z,18.6
2018-10-12T15:20:20.929Z,18.1
2018-10-12T15:25:19.209Z,18.6
2018-10-12T15:30:17.937Z,18
2018-10-12T15:35:16.089Z,18.7
2018-10-12T15:40:14.908Z,18.2
2018-10-12T15:45:13.354Z,18.2
2018-10-12T15:50:11.776Z,18.7
2018-10-12T15:55:10.319Z,18.2
2018-10-12T16:00:08.585Z,18.7
2018-10-12T16:05:06.882Z,18.2
2018-10-12T16:10:05.255Z,18.8
2018-10-12T16:15:03.701Z,18.8
2018-10-12T16:20:02.338Z,18.8
2018-10-12T16:25:00.591Z,18.2
2018-10-12T16:29:59.089Z,18.8
2018-10-12T16:34:57.379Z,18.1
2018-10-12T16:39:55.909Z,18.2
2018-10-12T16:44:54.065Z,18.1
2018-10-12T16:49:52.793Z,18.2
2018-10-12T16:54:50.888Z,18.7
2018-10-12T16:59:49.310Z,18.7
2018-10-12T17:04:47.697Z,18.2
2018-10-12T17:09:46.171Z,18.7
2018-10-12T17:14:44.593Z,18.2
2018-10-12T17:19:43.049Z,18.7
2018-10-12T17:24:41.576Z,18.2
2018-10-12T17:29:39.833Z,18.7
2018-10-12T17:34:38.209Z,18.7
2018-10-12T17:39:36.714Z,18.2
2018-10-12T17:44:35.190Z,18.1
2018-10-12T17:49:33.670Z,18.6
2018-10-12T17:54:32.143Z,18.1
2018-10-12T17:59:30.181Z,18.6
2018-10-12T18:04:28.487Z,18
2018-10-12T18:09:26.812Z,18.5
2018-10-12T18:14:25.215Z,18
2018-10-12T18:19:23.645Z,18
2018-10-12T18:24:21.998Z,18
2018-10-12T18:29:20.355Z,17.9
2018-10-12T18:34:18.662Z,17.9
2018-10-12T18:39:16.994Z,18.4
2018-10-12T18:44:15.018Z,17.9
2018-10-12T18:49:13.421Z,18.4
2018-10-12T18:54:11.976Z,17.9
2018-10-12T18:59:10.531Z,18.3
2018-10-12T19:04:09.129Z,17.8
2018-10-12T19:09:07.744Z,18.3
2018-10-12T19:14:06.119Z,17.7
2018-10-12T19:19:04.391Z,17.7
2018-10-12T19:24:02.454Z,18.2
2018-10-12T19:29:00.978Z,18.2
2018-10-12T19:33:59.472Z,17.6
2018-10-12T19:38:57.818Z,18.1
2018-10-12T19:43:56.281Z,17.6
2018-10-12T19:48:54.794Z,17.5
2018-10-12T19:53:52.994Z,17.5
2018-10-12T19:58:51.428Z,17.5
2018-10-12T20:03:49.667Z,17.5
2018-10-12T20:08:48.088Z,17.9
2018-10-12T20:13:46.509Z,17.9
2018-10-12T20:18:44.830Z,17.9
2018-10-12T20:23:43.252Z,17.8
2018-10-12T20:28:41.572Z,17.3
2018-10-12T20:33:39.914Z,17.8
2018-10-12T20:38:37.910Z,17.2
2018-10-12T20:43:36.327Z,17.7
2018-10-12T20:48:34.656Z,17.7
2018-10-12T20:53:32.959Z,17.7
2018-10-12T20:58:31.319Z,17.6
2018-10-12T21:03:29.480Z,17.6
2018-10-12T21:08:28.008Z,17.6
2018-10-12T21:13:26.473Z,17.5
2018-10-12T21:18:24.740Z,16.9
2018-10-12T21:23:23.067Z,17.5
2018-10-12T21:28:21.593Z,16.9
2018-10-12T21:33:20.035Z,17.2
2018-10-12T21:38:18.231Z,16.9
2018-10-12T21:43:16.812Z,17.4
2018-10-12T21:48:15.094Z,16.8
2018-10-12T21:53:13.419Z,16.8
2018-10-12T21:58:11.797Z,17.3
2018-10-12T22:03:10.239Z,17.2
2018-10-12T22:08:08.679Z,17.2
2018-10-12T22:13:07.103Z,16.7
2018-10-12T22:18:05.540Z,17.2
2018-10-12T22:23:03.842Z,16.5
2018-10-12T22:28:02.131Z,17.1
2018-10-12T22:33:00.276Z,16.6
2018-10-12T22:37:58.732Z,17
2018-10-12T22:42:57.119Z,17
2018-10-12T22:47:55.739Z,17
2018-10-12T22:52:54.236Z,17
2018-10-12T22:57:52.696Z,16.4
2018-10-12T23:02:50.750Z,16.9
2018-10-12T23:07:49.106Z,16.9
2018-10-12T23:12:47.354Z,16.9
2018-10-12T23:17:45.409Z,16.8
2018-10-12T23:22:43.623Z,16.8
2018-10-12T23:27:42.127Z,16.8
2018-10-12T23:32:40.251Z,16.7
2018-10-12T23:37:38.656Z,16.7
2018-10-12T23:42:36.714Z,16.4
2018-10-12T23:47:35.009Z,16.1
2018-10-12T23:52:33.164Z,16.6
2018-10-12T23:57:31.469Z,16.6
